Time;durP1;ratioP1;P1;durP2;ratioP2;P2;SDS_P1;SDS_P2;PMS_P1;PMS_P2;Temp;Humidity;BMP_temperature;BMP_pressure;BME280_temperature;BME280_humidity;BME280_pressure;Samples;Min_cycle;Max_cycle;Signal;HPM_P1;HPM_P2
2021/06/06 00:00:06;;;;;;;0.17;0.17;;;;;;;;;;5035352;28;20037;-83
2021/06/06 00:02:32;;;;;;;0.50;0.50;;;;;;;;;;5035570;28;20505;-83
2021/06/06 00:04:58;;;;;;;0.40;0.40;;;;;;;;;;5035455;28;20030;-84
2021/06/06 00:07:24;;;;;;;0.15;0.15;;;;;;;;;;5034225;28;20045;-83
2021/06/06 00:09:50;;;;;;;0.20;0.20;;;;;;;;;;5034604;28;20045;-83
2021/06/06 00:12:16;;;;;;;0.10;0.10;;;;;;;;;;5017675;28;20106;-83
2021/06/06 00:14:43;;;;;;;0.10;0.10;;;;;;;;;;5034243;28;20045;-83
2021/06/06 00:17:10;;;;;;;1.75;0.30;;;;;;;;;;5017591;28;20037;-83
2021/06/06 00:19:36;;;;;;;0.20;0.20;;;;;;;;;;5033950;28;20099;-83
2021/06/06 00:22:02;;;;;;;0.10;0.10;;;;;;;;;;5034038;28;20041;-83
2021/06/06 00:24:29;;;;;;;0.20;0.20;;;;;;;;;;5035047;28;20477;-82
2021/06/06 00:26:55;;;;;;;0.35;0.35;;;;;;;;;;5017404;28;20041;-83
2021/06/06 00:29:22;;;;;;;0.10;0.10;;;;;;;;;;5034014;28;20816;-83
2021/06/06 00:31:48;;;;;;;0.10;0.10;;;;;;;;;;5017862;28;20053;-82
2021/06/06 00:34:14;;;;;;;0.65;0.65;;;;;;;;;;5017461;28;20057;-83
2021/06/06 00:36:40;;;;;;;1.55;1.17;;;;;;;;;;5033634;28;20033;-83
2021/06/06 00:39:06;;;;;;;0.50;0.50;;;;;;;;;;5034909;28;20045;-83
2021/06/06 00:41:32;;;;;;;0.35;0.35;;;;;;;;;;5033327;28;20073;-83
2021/06/06 00:43:59;;;;;;;0.52;0.52;;;;;;;;;;5033565;28;20134;-83
2021/06/06 00:46:25;;;;;;;1.55;0.75;;;;;;;;;;5034831;28;20037;-82
2021/06/06 00:48:51;;;;;;;0.10;0.10;;;;;;;;;;5034757;28;20048;-83
2021/06/06 00:51:19;;;;;;;0.10;0.10;;;;;;;;;;5033674;28;20397;-83
2021/06/06 00:53:49;;;;;;;2.38;1.23;;;;;;;;;;5033420;28;20498;-83
2021/06/06 00:56:17;;;;;;;0.25;0.25;;;;;;;;;;5034395;28;20060;-83
2021/06/06 00:58:43;;;;;;;0.20;0.20;;;;;;;;;;5033271;28;20044;-83
2021/06/06 01:01:11;;;;;;;0.47;0.47;;;;;;;;;;5033352;28;20077;-84
2021/06/06 01:03:37;;;;;;;2.83;0.57;;;;;;;;;;5034365;28;20208;-83
2021/06/06 01:06:07;;;;;;;0.20;0.20;;;;;;;;;;5034313;28;20112;-83
2021/06/06 01:08:37;;;;;;;0.20;0.20;;;;;;;;;;5033144;28;20089;-82
2021/06/06 01:11:04;;;;;;;0.50;0.40;;;;;;;;;;5033098;28;20389;-83
2021/06/06 01:13:37;;;;;;;0.30;0.30;;;;;;;;;;5033136;28;20044;-83
2021/06/06 01:16:07;;;;;;;0.10;0.10;;;;;;;;;;5033150;28;20095;-83
2021/06/06 01:18:34;;;;;;;0.47;0.45;;;;;;;;;;5032760;28;20034;-83
2021/06/06 01:21:06;;;;;;;0.40;0.40;;;;;;;;;;5033971;28;20037;-83
2021/06/06 01:23:41;;;;;;;0.20;0.20;;;;;;;;;;5032834;28;20120;-83
2021/06/06 01:26:27;;;;;;;0.25;0.25;;;;;;;;;;5032859;28;20041;-83
2021/06/06 01:28:56;;;;;;;0.68;0.68;;;;;;;;;;4993509;28;20454;-82
2021/06/06 01:31:22;;;;;;;1.45;0.25;;;;;;;;;;5032774;28;20041;-83
2021/06/06 01:33:50;;;;;;;0.30;0.30;;;;;;;;;;5016122;28;20076;-82
2021/06/06 01:36:20;;;;;;;0.25;0.25;;;;;;;;;;5032548;28;20095;-82
2021/06/06 01:38:46;;;;;;;0.55;0.47;;;;;;;;;;5032602;28;20041;-82
2021/06/06 01:41:15;;;;;;;0.70;0.35;;;;;;;;;;5033535;28;20440;-82
2021/06/06 01:43:42;;;;;;;0.30;0.30;;;;;;;;;;5032513;28;20038;-83
2021/06/06 01:46:10;;;;;;;0.20;0.20;;;;;;;;;;5032245;28;20041;-83
2021/06/06 01:48:37;;;;;;;0.10;0.10;;;;;;;;;;5032534;28;20117;-83
2021/06/06 01:51:07;;;;;;;0.25;0.25;;;;;;;;;;5032533;28;20040;-82
2021/06/06 01:53:33;;;;;;;0.32;0.17;;;;;;;;;;5032301;28;20033;-83
2021/06/06 01:55:59;;;;;;;0.65;0.65;;;;;;;;;;5032087;28;20076;-82
2021/06/06 01:58:26;;;;;;;0.43;0.43;;;;;;;;;;5031989;28;20053;-82
2021/06/06 02:00:54;;;;;;;0.55;0.55;;;;;;;;;;5015681;28;20033;-82
2021/06/06 02:03:20;;;;;;;0.25;0.22;;;;;;;;;;5032155;28;20488;-83
2021/06/06 02:05:47;;;;;;;0.20;0.20;;;;;;;;;;5032071;28;20041;-82
2021/06/06 02:08:13;;;;;;;0.30;0.30;;;;;;;;;;5015539;28;20041;-82
2021/06/06 02:10:39;;;;;;;0.25;0.22;;;;;;;;;;5031913;28;20044;-83
2021/06/06 02:13:14;;;;;;;0.10;0.10;;;;;;;;;;5033047;28;20034;-83
2021/06/06 02:15:40;;;;;;;0.68;0.68;;;;;;;;;;5015464;28;20070;-83
2021/06/06 02:18:08;;;;;;;1.08;0.60;;;;;;;;;;5015291;28;20049;-83
2021/06/06 02:20:36;;;;;;;0.70;0.55;;;;;;;;;;5015421;28;20489;-83
2021/06/06 02:23:02;;;;;;;0.25;0.25;;;;;;;;;;5031691;28;20451;-83
2021/06/06 02:25:28;;;;;;;0.35;0.30;;;;;;;;;;5015099;28;20050;-83
2021/06/06 02:27:54;;;;;;;0.43;0.43;;;;;;;;;;5031426;28;20041;-83
2021/06/06 02:30:21;;;;;;;0.20;0.20;;;;;;;;;;5032783;28;20294;-82
2021/06/06 02:32:53;;;;;;;1.00;1.00;;;;;;;;;;5015146;28;20033;-83
2021/06/06 02:35:40;;;;;;;0.53;0.50;;;;;;;;;;5031559;28;20042;-83
2021/06/06 02:38:07;;;;;;;0.63;0.63;;;;;;;;;;5014909;28;20044;-83
2021/06/06 02:40:33;;;;;;;0.15;0.15;;;;;;;;;;5031147;28;20458;-83
2021/06/06 02:43:01;;;;;;;0.30;0.30;;;;;;;;;;5032734;28;20042;-83
2021/06/06 02:45:28;;;;;;;0.45;0.45;;;;;;;;;;5031459;28;20037;-82
2021/06/06 02:47:55;;;;;;;0.40;0.40;;;;;;;;;;5031749;28;20137;-82
2021/06/06 02:50:22;;;;;;;0.20;0.20;;;;;;;;;;5031346;28;20041;-83
2021/06/06 02:52:50;;;;;;;0.20;0.20;;;;;;;;;;5031101;28;20132;-83
2021/06/06 02:55:26;;;;;;;0.30;0.30;;;;;;;;;;5014818;28;20056;-83
2021/06/06 02:57:54;;;;;;;0.10;0.10;;;;;;;;;;5031031;28;20038;-83
2021/06/06 03:00:26;;;;;;;0.55;0.38;;;;;;;;;;5014717;28;20045;-83
2021/06/06 03:02:52;;;;;;;;;;;;;;;;;;5032665;28;20041;-82
2021/06/06 03:05:19;;;;;;;0.43;0.43;;;;;;;;;;5032110;28;19971;-83
2021/06/06 03:07:47;;;;;;;0.30;0.30;;;;;;;;;;5030535;28;20099;-83
2021/06/06 03:10:14;;;;;;;0.15;0.15;;;;;;;;;;5030855;28;20554;-83
2021/06/06 03:12:40;;;;;;;0.40;0.40;;;;;;;;;;5030991;28;20065;-83
2021/06/06 03:15:08;;;;;;;0.75;0.75;;;;;;;;;;5031087;28;20547;-82
2021/06/06 03:17:39;;;;;;;0.20;0.20;;;;;;;;;;5014456;28;20492;-82
2021/06/06 03:20:29;;;;;;;0.43;0.43;;;;;;;;;;5030855;28;20098;-83
2021/06/06 03:22:55;;;;;;;0.20;0.20;;;;;;;;;;5031023;28;20045;-83
2021/06/06 03:25:41;;;;;;;0.10;0.10;;;;;;;;;;5014294;28;20555;-83
2021/06/06 03:28:08;;;;;;;0.10;0.10;;;;;;;;;;5030653;28;20142;-83
2021/06/06 03:30:34;;;;;;;0.30;0.30;;;;;;;;;;5031175;28;20069;-83
2021/06/06 03:33:00;;;;;;;0.10;0.10;;;;;;;;;;5030874;28;20048;-83
2021/06/06 03:35:27;;;;;;;0.10;0.10;;;;;;;;;;5030815;28;20485;-83
2021/06/06 03:37:53;;;;;;;0.20;0.17;;;;;;;;;;5030624;28;20115;-82
2021/06/06 03:40:19;;;;;;;0.90;0.50;;;;;;;;;;5031863;28;20041;-82
2021/06/06 03:42:45;;;;;;;0.35;0.35;;;;;;;;;;5030466;28;20045;-82
2021/06/06 03:45:12;;;;;;;0.20;0.20;;;;;;;;;;5030973;28;20481;-82
2021/06/06 03:47:38;;;;;;;0.28;0.28;;;;;;;;;;5030656;28;20048;-82
2021/06/06 03:50:04;;;;;;;0.30;0.30;;;;;;;;;;5030900;28;20037;-82
2021/06/06 03:52:33;;;;;;;0.10;0.10;;;;;;;;;;5030929;28;20171;-82
2021/06/06 03:55:00;;;;;;;0.22;0.22;;;;;;;;;;5030536;28;20033;-82
2021/06/06 03:57:26;;;;;;;0.75;0.75;;;;;;;;;;5030554;28;20041;-82
2021/06/06 03:59:52;;;;;;;0.20;0.20;;;;;;;;;;5030692;28;20041;-82
2021/06/06 04:02:18;;;;;;;0.73;0.73;;;;;;;;;;5030661;28;20041;-82
2021/06/06 04:04:45;;;;;;;0.20;0.20;;;;;;;;;;5030619;28;20481;-83
2021/06/06 04:07:12;;;;;;;0.10;0.10;;;;;;;;;;5031603;28;20561;-82
2021/06/06 04:09:38;;;;;;;1.05;0.17;;;;;;;;;;5030493;28;20401;-82
2021/06/06 04:12:04;;;;;;;1.40;0.68;;;;;;;;;;5030490;28;20037;-82
2021/06/06 04:14:30;;;;;;;0.28;0.28;;;;;;;;;;5030436;28;20040;-82
2021/06/06 04:16:56;;;;;;;0.63;0.63;;;;;;;;;;5014082;28;20073;-82
2021/06/06 04:19:22;;;;;;;0.65;0.20;;;;;;;;;;5031767;28;20041;-83
2021/06/06 04:21:50;;;;;;;3.30;0.57;;;;;;;;;;5034020;28;20092;-82
2021/06/06 04:24:16;;;;;;;0.10;0.10;;;;;;;;;;5033930;28;20029;-82
2021/06/06 04:26:42;;;;;;;0.68;0.68;;;;;;;;;;5033731;28;20059;-83
2021/06/06 04:29:08;;;;;;;0.22;0.22;;;;;;;;;;5034913;28;20045;-82
2021/06/06 04:31:35;;;;;;;0.20;0.20;;;;;;;;;;5034112;28;20037;-83
2021/06/06 04:34:01;;;;;;;0.38;0.38;;;;;;;;;;5017339;28;20044;-82
2021/06/06 04:36:27;;;;;;;0.10;0.10;;;;;;;;;;5033658;28;20088;-82
2021/06/06 04:38:53;;;;;;;0.65;0.65;;;;;;;;;;5034753;28;20492;-82
2021/06/06 04:41:19;;;;;;;0.40;0.40;;;;;;;;;;5034494;28;20470;-82
2021/06/06 04:43:45;;;;;;;0.20;0.20;;;;;;;;;;5033622;28;20124;-82
2021/06/06 04:46:14;;;;;;;0.65;0.30;;;;;;;;;;5033334;28;20052;-82
2021/06/06 04:48:41;;;;;;;0.50;0.50;;;;;;;;;;5033398;28;20128;-82
2021/06/06 04:51:08;;;;;;;0.40;0.40;;;;;;;;;;5033584;28;20044;-83
2021/06/06 04:53:34;;;;;;;0.68;0.22;;;;;;;;;;5033393;28;20496;-83
2021/06/06 04:56:01;;;;;;;0.52;0.30;;;;;;;;;;5033196;28;20045;-83
2021/06/06 04:58:27;;;;;;;1.35;0.43;;;;;;;;;;5033131;28;20041;-83
2021/06/06 05:00:53;;;;;;;1.17;1.17;;;;;;;;;;5034353;28;20116;-82
2021/06/06 05:03:20;;;;;;;0.22;0.22;;;;;;;;;;5033358;28;20034;-83
2021/06/06 05:05:46;;;;;;;0.35;0.35;;;;;;;;;;5016778;28;20044;-83
2021/06/06 05:08:12;;;;;;;0.20;0.20;;;;;;;;;;5034046;28;20041;-83
2021/06/06 05:10:39;;;;;;;0.20;0.20;;;;;;;;;;5033179;28;20433;-82
2021/06/06 05:13:05;;;;;;;0.77;0.60;;;;;;;;;;5033106;28;20051;-83
2021/06/06 05:15:31;;;;;;;0.20;0.20;;;;;;;;;;5032860;28;20128;-83
2021/06/06 05:17:57;;;;;;;0.30;0.30;;;;;;;;;;5032811;28;20374;-84
2021/06/06 05:20:28;;;;;;;0.38;0.38;;;;;;;;;;5033047;28;20508;-83
2021/06/06 05:22:54;;;;;;;0.20;0.20;;;;;;;;;;5016332;28;20041;-83
2021/06/06 05:25:20;;;;;;;0.68;0.68;;;;;;;;;;5032816;28;20496;-82
2021/06/06 05:27:46;;;;;;;0.30;0.30;;;;;;;;;;5032739;28;20079;-83
2021/06/06 05:30:14;;;;;;;0.25;0.25;;;;;;;;;;5033818;28;20041;-82
2021/06/06 05:32:40;;;;;;;0.10;0.10;;;;;;;;;;5031896;28;20118;-83
2021/06/06 05:35:06;;;;;;;0.80;0.43;;;;;;;;;;5033973;28;20045;-83
2021/06/06 05:37:32;;;;;;;0.40;0.40;;;;;;;;;;5032472;28;20045;-82
2021/06/06 05:39:58;;;;;;;0.10;0.10;;;;;;;;;;5032532;28;20037;-81
2021/06/06 05:42:25;;;;;;;0.90;0.80;;;;;;;;;;5032320;28;20072;-83
2021/06/06 05:44:51;;;;;;;0.13;0.13;;;;;;;;;;5032487;28;20041;-83
2021/06/06 05:47:17;;;;;;;0.43;0.43;;;;;;;;;;5032381;28;20040;-83
2021/06/06 05:49:43;;;;;;;0.20;0.20;;;;;;;;;;5033607;28;20052;-83
2021/06/06 05:52:09;;;;;;;0.38;0.38;;;;;;;;;;5032541;28;20047;-82
2021/06/06 05:54:36;;;;;;;0.20;0.20;;;;;;;;;;5031830;28;20158;-83
2021/06/06 05:57:02;;;;;;;0.82;0.70;;;;;;;;;;5033307;28;20056;-82
2021/06/06 05:59:28;;;;;;;1.60;0.70;;;;;;;;;;5032225;28;20045;-83
2021/06/06 06:01:54;;;;;;;0.28;0.28;;;;;;;;;;5032160;28;20038;-83
2021/06/06 06:04:20;;;;;;;1.15;1.05;;;;;;;;;;5033245;28;20052;-83
2021/06/06 06:06:46;;;;;;;0.10;0.10;;;;;;;;;;5031854;28;20033;-83
2021/06/06 06:09:14;;;;;;;0.30;0.30;;;;;;;;;;5015790;28;20124;-84
2021/06/06 06:11:40;;;;;;;0.10;0.10;;;;;;;;;;5032110;28;20448;-84
2021/06/06 06:14:06;;;;;;;0.45;0.45;;;;;;;;;;5032998;28;20037;-84
2021/06/06 06:16:33;;;;;;;0.30;0.30;;;;;;;;;;5015525;28;20033;-85
2021/06/06 06:19:01;;;;;;;0.50;0.47;;;;;;;;;;5031630;28;20120;-84
2021/06/06 06:21:32;;;;;;;0.50;0.50;;;;;;;;;;5032874;28;20500;-85
2021/06/06 06:24:00;;;;;;;0.20;0.20;;;;;;;;;;5031833;28;20047;-84
2021/06/06 06:26:29;;;;;;;0.20;0.20;;;;;;;;;;5031335;28;20033;-84
2021/06/06 06:29:15;;;;;;;0.10;0.10;;;;;;;;;;5018262;28;20045;-83
2021/06/06 06:31:41;;;;;;;0.22;0.22;;;;;;;;;;5031558;28;20045;-84
2021/06/06 06:34:07;;;;;;;0.60;0.30;;;;;;;;;;5031387;28;20112;-84
2021/06/06 06:36:33;;;;;;;0.38;0.38;;;;;;;;;;5031306;28;20061;-84
2021/06/06 06:38:59;;;;;;;0.47;0.47;;;;;;;;;;5031465;28;20075;-85
2021/06/06 06:41:26;;;;;;;0.28;0.28;;;;;;;;;;5014769;28;20053;-83
2021/06/06 06:43:53;;;;;;;0.17;0.17;;;;;;;;;;5014766;28;20041;-84
2021/06/06 06:46:19;;;;;;;0.10;0.10;;;;;;;;;;5014784;28;20056;-83
2021/06/06 06:48:46;;;;;;;0.57;0.57;;;;;;;;;;5015020;28;20485;-84
2021/06/06 06:51:12;;;;;;;0.98;0.40;;;;;;;;;;5015090;28;20091;-84
2021/06/06 06:53:38;;;;;;;1.30;1.30;;;;;;;;;;5014710;28;20041;-84
2021/06/06 06:56:04;;;;;;;0.20;0.20;;;;;;;;;;5014768;28;20041;-86
2021/06/06 06:58:33;;;;;;;0.45;0.40;;;;;;;;;;5017860;28;20397;-87
2021/06/06 07:00:59;;;;;;;0.17;0.17;;;;;;;;;;5031069;28;20045;-85
2021/06/06 07:03:29;;;;;;;0.55;0.55;;;;;;;;;;5030977;28;20034;-84
2021/06/06 07:05:55;;;;;;;0.10;0.10;;;;;;;;;;5031006;28;20034;-83
2021/06/06 07:08:23;;;;;;;0.20;0.20;;;;;;;;;;5015509;28;20079;-83
2021/06/06 07:10:49;;;;;;;0.60;0.60;;;;;;;;;;5047339;28;20120;-83
2021/06/06 07:13:15;;;;;;;0.38;0.38;;;;;;;;;;5025690;28;20042;-83
2021/06/06 07:15:41;;;;;;;0.20;0.20;;;;;;;;;;5037975;28;20470;-83
2021/06/06 07:18:08;;;;;;;1.27;0.40;;;;;;;;;;5014377;28;20510;-83
2021/06/06 07:20:37;;;;;;;0.65;0.65;;;;;;;;;;5012743;28;20046;-84
2021/06/06 07:23:04;;;;;;;0.20;0.20;;;;;;;;;;5029476;28;20096;-83
2021/06/06 07:25:32;;;;;;;0.28;0.28;;;;;;;;;;5030629;28;20100;-83
2021/06/06 07:27:59;;;;;;;0.80;0.80;;;;;;;;;;5046135;28;20045;-83
2021/06/06 07:30:26;;;;;;;0.20;0.20;;;;;;;;;;5030854;28;20067;-84
2021/06/06 07:32:52;;;;;;;0.45;0.20;;;;;;;;;;5047405;28;20420;-84
2021/06/06 07:35:20;;;;;;;0.28;0.28;;;;;;;;;;5030697;28;20037;-83
2021/06/06 07:37:51;;;;;;;0.77;0.77;;;;;;;;;;5030777;28;20393;-84
2021/06/06 07:40:19;;;;;;;0.60;0.60;;;;;;;;;;5046919;28;20030;-83
2021/06/06 07:42:45;;;;;;;0.20;0.20;;;;;;;;;;5031725;28;20049;-84
2021/06/06 07:45:12;;;;;;;0.52;0.52;;;;;;;;;;5030623;28;20439;-85
2021/06/06 07:47:41;;;;;;;0.55;0.55;;;;;;;;;;5046903;28;20044;-87
2021/06/06 07:50:08;;;;;;;0.20;0.20;;;;;;;;;;5030587;28;20048;-86
2021/06/06 07:52:35;;;;;;;0.10;0.10;;;;;;;;;;5030510;28;20042;-85
2021/06/06 07:55:07;;;;;;;1.77;0.75;;;;;;;;;;5031695;28;20052;-84
2021/06/06 07:57:33;;;;;;;0.20;0.20;;;;;;;;;;5050812;28;20072;-86
2021/06/06 07:59:59;;;;;;;0.28;0.28;;;;;;;;;;5050259;28;20044;-85
2021/06/06 08:02:26;;;;;;;0.10;0.10;;;;;;;;;;5018093;28;20552;-85
2021/06/06 08:04:52;;;;;;;0.68;0.68;;;;;;;;;;5017543;28;20052;-85
2021/06/06 08:07:18;;;;;;;1.75;0.40;;;;;;;;;;5033886;28;20513;-86
2021/06/06 08:09:44;;;;;;;0.15;0.15;;;;;;;;;;5034018;28;20073;-86
2021/06/06 08:12:10;;;;;;;0.30;0.30;;;;;;;;;;5032696;28;20048;-86
2021/06/06 08:14:36;;;;;;;0.30;0.30;;;;;;;;;;5049478;28;20037;-85
2021/06/06 08:17:02;;;;;;;0.65;0.22;;;;;;;;;;5033935;28;20095;-86
2021/06/06 08:19:28;;;;;;;0.50;0.50;;;;;;;;;;5050490;28;20481;-85
2021/06/06 08:21:54;;;;;;;0.30;0.30;;;;;;;;;;5050279;28;20560;-85
2021/06/06 08:24:20;;;;;;;0.20;0.20;;;;;;;;;;5050407;28;20044;-85
2021/06/06 08:26:47;;;;;;;0.50;0.40;;;;;;;;;;5034963;28;20090;-85
2021/06/06 08:29:13;;;;;;;0.20;0.20;;;;;;;;;;5033616;28;20485;-85
2021/06/06 08:31:39;;;;;;;0.25;0.25;;;;;;;;;;5050190;28;20076;-83
2021/06/06 08:34:07;;;;;;;0.15;0.15;;;;;;;;;;5050487;28;20060;-88
2021/06/06 08:36:35;;;;;;;0.20;0.20;;;;;;;;;;5050079;28;20037;-86
2021/06/06 08:39:01;;;;;;;0.32;0.32;;;;;;;;;;5033651;28;20047;-86
2021/06/06 08:41:27;;;;;;;0.10;0.10;;;;;;;;;;5033498;28;20074;-86
2021/06/06 08:44:02;;;;;;;0.15;0.15;;;;;;;;;;5033691;28;20048;-87
2021/06/06 08:46:28;;;;;;;0.40;0.40;;;;;;;;;;5033524;28;20124;-90
2021/06/06 08:48:56;;;;;;;0.13;0.13;;;;;;;;;;5033895;28;20064;-86
2021/06/06 08:51:22;;;;;;;0.73;0.73;;;;;;;;;;5050095;28;20033;-85
2021/06/06 08:54:01;;;;;;;2.00;0.73;;;;;;;;;;5034692;28;20044;-86
2021/06/06 08:56:29;;;;;;;0.20;0.20;;;;;;;;;;5034662;28;20041;-85
2021/06/06 08:58:55;;;;;;;0.20;0.20;;;;;;;;;;5033360;28;20038;-85
2021/06/06 09:01:27;;;;;;;0.17;0.17;;;;;;;;;;5034601;28;20065;-85
2021/06/06 09:03:53;;;;;;;0.10;0.10;;;;;;;;;;5049613;28;20473;-85
2021/06/06 09:06:29;;;;;;;0.30;0.30;;;;;;;;;;5048489;28;20037;-86
2021/06/06 09:08:57;;;;;;;0.20;0.20;;;;;;;;;;5033328;28;20144;-86
2021/06/06 09:11:23;;;;;;;0.30;0.25;;;;;;;;;;5049282;28;20409;-87
2021/06/06 09:13:49;;;;;;;0.25;0.25;;;;;;;;;;5049715;28;20037;-84
2021/06/06 09:16:17;;;;;;;0.38;0.38;;;;;;;;;;5033125;28;20076;-84
2021/06/06 09:18:48;;;;;;;0.25;0.25;;;;;;;;;;5033106;28;20046;-85
2021/06/06 09:21:14;;;;;;;0.30;0.30;;;;;;;;;;5033225;28;20044;-83
2021/06/06 09:23:40;;;;;;;1.08;0.75;;;;;;;;;;5034041;28;20037;-86
2021/06/06 09:26:06;;;;;;;0.22;0.22;;;;;;;;;;5049522;28;20045;-86
2021/06/06 09:28:35;;;;;;;1.20;0.82;;;;;;;;;;5033890;28;20049;-85
2021/06/06 09:31:10;;;;;;;0.93;0.75;;;;;;;;;;5032752;28;20091;-87
2021/06/06 09:33:36;;;;;;;0.20;0.20;;;;;;;;;;5033854;28;20041;-86
2021/06/06 09:36:03;;;;;;;0.30;0.30;;;;;;;;;;5032780;28;20037;-86
2021/06/06 09:38:29;;;;;;;0.20;0.20;;;;;;;;;;5032244;28;20489;-86
2021/06/06 09:40:55;;;;;;;0.43;0.43;;;;;;;;;;5033926;28;20217;-86
2021/06/06 09:43:29;;;;;;;0.15;0.15;;;;;;;;;;5033931;28;20350;-86
2021/06/06 09:46:14;;;;;;;0.20;0.20;;;;;;;;;;5049153;28;20531;-86
2021/06/06 09:48:42;;;;;;;0.30;0.30;;;;;;;;;;5032517;28;20044;-86
2021/06/06 09:51:10;;;;;;;0.20;0.20;;;;;;;;;;5032344;28;20041;-85
2021/06/06 09:53:38;;;;;;;1.73;0.75;;;;;;;;;;5032292;28;20065;-85
2021/06/06 09:56:22;;;;;;;0.17;0.17;;;;;;;;;;5032110;28;20060;-84
2021/06/06 09:58:49;;;;;;;2.65;0.20;;;;;;;;;;5032326;28;20045;-86
2021/06/06 10:01:21;;;;;;;0.10;0.10;;;;;;;;;;5033586;28;20037;-87
2021/06/06 10:03:56;;;;;;;0.20;0.20;;;;;;;;;;5032222;28;20064;-86
2021/06/06 10:06:49;;;;;;;0.30;0.30;;;;;;;;;;5033270;28;20041;-85
2021/06/06 10:09:18;;;;;;;0.20;0.20;;;;;;;;;;4995622;28;20053;-86
2021/06/06 10:11:50;;;;;;;0.20;0.20;;;;;;;;;;5031904;28;20053;-86
2021/06/06 10:14:20;;;;;;;0.25;0.25;;;;;;;;;;5032013;28;20080;-85
2021/06/06 10:16:46;;;;;;;0.20;0.20;;;;;;;;;;5031751;28;20463;-86
2021/06/06 10:19:31;;;;;;;0.10;0.10;;;;;;;;;;5047938;28;20046;-87
2021/06/06 10:21:59;;;;;;;0.68;0.68;;;;;;;;;;5015473;28;20387;-85
2021/06/06 10:24:36;;;;;;;0.50;0.50;;;;;;;;;;5031921;28;20037;-85
2021/06/06 10:27:07;;;;;;;0.10;0.10;;;;;;;;;;5031544;28;20041;-86
2021/06/06 10:29:36;;;;;;;0.10;0.10;;;;;;;;;;5031672;28;20452;-86
2021/06/06 10:32:06;;;;;;;0.47;0.43;;;;;;;;;;5048168;28;20042;-86
2021/06/06 10:34:34;;;;;;;0.20;0.20;;;;;;;;;;5031558;28;20073;-86
2021/06/06 10:37:00;;;;;;;0.40;0.40;;;;;;;;;;5027707;28;20039;-85
2021/06/06 10:39:27;;;;;;;0.10;0.10;;;;;;;;;;5027504;28;20048;-85
2021/06/06 10:41:55;;;;;;;0.20;0.20;;;;;;;;;;5027980;28;20046;-85
2021/06/06 10:44:33;;;;;;;0.10;0.10;;;;;;;;;;5027975;28;20117;-85
2021/06/06 10:47:01;;;;;;;0.10;0.10;;;;;;;;;;5011565;28;20088;-85
2021/06/06 10:49:35;;;;;;;0.20;0.20;;;;;;;;;;5028194;28;20045;-85
2021/06/06 10:52:06;;;;;;;0.50;0.50;;;;;;;;;;5027792;28;20041;-86
2021/06/06 10:54:40;;;;;;;0.63;0.35;;;;;;;;;;5011384;28;20497;-85
2021/06/06 10:57:29;;;;;;;0.30;0.30;;;;;;;;;;5027700;28;20033;-87
2021/06/06 11:00:10;;;;;;;0.20;0.20;;;;;;;;;;5011517;28;20128;-88
2021/06/06 11:02:37;;;;;;;0.15;0.15;;;;;;;;;;5027533;28;20101;-86
2021/06/06 11:05:11;;;;;;;0.20;0.20;;;;;;;;;;5027738;28;20034;-86
2021/06/06 11:07:38;;;;;;;0.20;0.20;;;;;;;;;;5011436;28;20082;-86
2021/06/06 11:10:18;;;;;;;0.10;0.10;;;;;;;;;;5027820;28;20041;-86
2021/06/06 11:12:44;;;;;;;0.10;0.10;;;;;;;;;;4994845;28;20133;-86
2021/06/06 11:15:18;;;;;;;0.20;0.20;;;;;;;;;;5027632;28;20042;-84
2021/06/06 11:17:44;;;;;;;0.20;0.20;;;;;;;;;;5011308;28;20521;-84
2021/06/06 11:20:14;;;;;;;0.20;0.20;;;;;;;;;;5012154;28;20501;-84
2021/06/06 11:22:40;;;;;;;0.47;0.47;;;;;;;;;;5012370;28;20034;-84
2021/06/06 11:25:07;;;;;;;0.20;0.20;;;;;;;;;;5036139;28;20397;-84
2021/06/06 11:27:36;;;;;;;0.20;0.20;;;;;;;;;;5014286;28;20034;-84
2021/06/06 11:30:06;;;;;;;0.10;0.10;;;;;;;;;;5016320;28;20041;-83
2021/06/06 11:32:36;;;;;;;0.10;0.10;;;;;;;;;;5033626;28;20041;-83
2021/06/06 11:35:20;;;;;;;0.10;0.10;;;;;;;;;;5034778;28;20311;-83
2021/06/06 11:37:54;;;;;;;0.20;0.20;;;;;;;;;;5034385;28;20048;-83
2021/06/06 11:40:26;;;;;;;0.10;0.10;;;;;;;;;;5051132;28;20034;-84
2021/06/06 11:42:53;;;;;;;0.15;0.15;;;;;;;;;;5011539;28;20173;-84
2021/06/06 11:45:20;;;;;;;1.65;0.30;;;;;;;;;;4979116;28;20030;-84
2021/06/06 11:47:50;;;;;;;0.20;0.20;;;;;;;;;;4995187;28;20066;-84
2021/06/06 11:50:24;;;;;;;0.20;0.20;;;;;;;;;;4995221;28;20449;-85
2021/06/06 11:52:55;;;;;;;0.10;0.10;;;;;;;;;;4979253;28;20443;-84
2021/06/06 11:55:23;;;;;;;0.20;0.20;;;;;;;;;;4979074;28;20034;-84
2021/06/06 11:57:51;;;;;;;0.20;0.20;;;;;;;;;;4994916;28;20382;-84
2021/06/06 12:00:20;;;;;;;0.10;0.10;;;;;;;;;;4995165;28;20093;-85
2021/06/06 12:02:46;;;;;;;0.20;0.20;;;;;;;;;;4978920;28;20088;-83
2021/06/06 12:05:15;;;;;;;0.10;0.10;;;;;;;;;;4995077;28;20761;-82
2021/06/06 12:07:43;;;;;;;0.10;0.10;;;;;;;;;;4996024;28;20038;-83
2021/06/06 12:10:19;;;;;;;0.20;0.20;;;;;;;;;;4979145;28;20046;-83
2021/06/06 12:12:47;;;;;;;0.25;0.25;;;;;;;;;;4994881;28;20038;-82
2021/06/06 12:15:21;;;;;;;0.10;0.10;;;;;;;;;;4994798;28;20038;-82
2021/06/06 12:17:47;;;;;;;0.10;0.10;;;;;;;;;;4994668;28;20552;-82
2021/06/06 12:20:17;;;;;;;0.10;0.10;;;;;;;;;;4994633;28;20043;-82
2021/06/06 12:22:43;;;;;;;0.10;0.10;;;;;;;;;;4978507;28;20034;-82
2021/06/06 12:25:11;;;;;;;0.10;0.10;;;;;;;;;;4994749;28;20034;-83
2021/06/06 12:27:50;;;;;;;0.10;0.10;;;;;;;;;;4994472;28;20050;-83
2021/06/06 12:30:25;;;;;;;0.10;0.10;;;;;;;;;;4995620;28;20065;-83
2021/06/06 12:32:54;;;;;;;0.10;0.10;;;;;;;;;;4978477;28;20044;-82
2021/06/06 12:35:21;;;;;;;0.20;0.20;;;;;;;;;;4994482;28;20049;-83
2021/06/06 12:37:48;;;;;;;0.10;0.10;;;;;;;;;;4994335;28;20093;-82
2021/06/06 12:40:18;;;;;;;0.10;0.10;;;;;;;;;;4995254;28;20041;-82
2021/06/06 12:42:44;;;;;;;0.20;0.20;;;;;;;;;;5031459;28;20085;-82
2021/06/06 12:45:11;;;;;;;0.10;0.10;;;;;;;;;;5050218;28;20040;-81
2021/06/06 12:47:38;;;;;;;0.10;0.10;;;;;;;;;;5050064;28;20033;-82
2021/06/06 12:50:07;;;;;;;0.10;0.10;;;;;;;;;;5050006;28;20041;-81
2021/06/06 12:52:44;;;;;;;0.20;0.20;;;;;;;;;;5033530;28;20029;-82
2021/06/06 12:55:24;;;;;;;0.20;0.20;;;;;;;;;;5050090;28;20136;-83
2021/06/06 12:57:54;;;;;;;0.30;0.30;;;;;;;;;;5049829;28;20075;-82
2021/06/06 13:00:24;;;;;;;0.20;0.20;;;;;;;;;;5033283;28;20041;-82
2021/06/06 13:02:50;;;;;;;0.15;0.15;;;;;;;;;;5049847;28;20037;-82
2021/06/06 13:05:28;;;;;;;0.10;0.10;;;;;;;;;;5049509;28;20037;-82
2021/06/06 13:07:54;;;;;;;0.10;0.10;;;;;;;;;;5048950;28;20037;-84
2021/06/06 13:10:28;;;;;;;0.10;0.10;;;;;;;;;;5032985;28;20053;-82
2021/06/06 13:12:54;;;;;;;0.10;0.10;;;;;;;;;;5032726;28;20747;-82
2021/06/06 13:15:32;;;;;;;0.20;0.20;;;;;;;;;;5034371;28;20050;-82
2021/06/06 13:17:58;;;;;;;0.10;0.10;;;;;;;;;;5032841;28;20041;-81
2021/06/06 13:20:24;;;;;;;0.28;0.28;;;;;;;;;;5032830;28;20071;-82
2021/06/06 13:23:06;;;;;;;0.10;0.10;;;;;;;;;;5034018;28;20037;-82
2021/06/06 13:25:41;;;;;;;0.10;0.10;;;;;;;;;;5033192;28;20045;-83
2021/06/06 13:28:20;;;;;;;0.10;0.10;;;;;;;;;;5032670;28;20045;-83
2021/06/06 13:30:47;;;;;;;0.10;0.10;;;;;;;;;;5049148;28;20044;-82
2021/06/06 13:33:14;;;;;;;0.10;0.10;;;;;;;;;;5049147;28;20112;-83
2021/06/06 13:35:40;;;;;;;0.20;0.20;;;;;;;;;;5049206;28;20042;-82
2021/06/06 13:38:06;;;;;;;0.10;0.10;;;;;;;;;;5049385;28;20040;-82
2021/06/06 13:40:36;;;;;;;0.20;0.20;;;;;;;;;;5033636;28;20052;-82
2021/06/06 13:43:03;;;;;;;0.10;0.10;;;;;;;;;;5049110;28;20045;-84
2021/06/06 13:45:29;;;;;;;0.20;0.20;;;;;;;;;;5048960;28;20033;-84
2021/06/06 13:47:55;;;;;;;0.10;0.10;;;;;;;;;;5032467;28;20397;-83
2021/06/06 13:50:21;;;;;;;0.20;0.20;;;;;;;;;;5049009;28;20073;-86
2021/06/06 13:52:47;;;;;;;0.20;0.20;;;;;;;;;;5031722;28;20149;-85
2021/06/06 13:55:15;;;;;;;0.20;0.20;;;;;;;;;;5038814;28;20042;-85
2021/06/06 13:57:41;;;;;;;0.10;0.10;;;;;;;;;;5045581;28;20045;-85
2021/06/06 14:00:08;;;;;;;0.20;0.20;;;;;;;;;;5041003;28;20053;-85
2021/06/06 14:02:34;;;;;;;0.43;0.43;;;;;;;;;;5013711;28;20034;-85
2021/06/06 14:05:00;;;;;;;0.20;0.20;;;;;;;;;;5031349;28;20033;-82
2021/06/06 14:07:26;;;;;;;0.10;0.10;;;;;;;;;;5013456;28;20049;-83
2021/06/06 14:09:54;;;;;;;0.40;0.40;;;;;;;;;;5026771;28;20041;-84
2021/06/06 14:12:20;;;;;;;0.10;0.10;;;;;;;;;;5031580;28;20033;-82
2021/06/06 14:14:46;;;;;;;0.13;0.13;;;;;;;;;;5031869;28;20033;-82
2021/06/06 14:17:12;;;;;;;0.10;0.10;;;;;;;;;;5032844;28;20041;-82
2021/06/06 14:19:38;;;;;;;0.10;0.10;;;;;;;;;;5015218;28;20501;-82
2021/06/06 14:22:05;;;;;;;0.63;0.63;;;;;;;;;;5031945;28;20083;-82
2021/06/06 14:24:34;;;;;;;0.10;0.10;;;;;;;;;;5015692;28;20037;-82
2021/06/06 14:27:05;;;;;;;0.20;0.20;;;;;;;;;;5031411;28;20430;-82
2021/06/06 14:29:31;;;;;;;0.20;0.20;;;;;;;;;;5032001;28;20116;-82
2021/06/06 14:31:58;;;;;;;0.10;0.10;;;;;;;;;;5015024;28;20111;-82
2021/06/06 14:34:24;;;;;;;0.95;0.40;;;;;;;;;;5031741;28;20045;-82
2021/06/06 14:36:50;;;;;;;0.20;0.20;;;;;;;;;;5032664;28;20038;-82
2021/06/06 14:39:16;;;;;;;0.20;0.20;;;;;;;;;;5031447;28;20037;-82
2021/06/06 14:41:42;;;;;;;0.20;0.20;;;;;;;;;;5031452;28;20448;-82
2021/06/06 14:44:08;;;;;;;0.17;0.17;;;;;;;;;;5032602;28;20116;-82
2021/06/06 14:46:34;;;;;;;0.10;0.10;;;;;;;;;;5032760;28;20068;-82
2021/06/06 14:49:03;;;;;;;0.10;0.10;;;;;;;;;;5032586;28;20073;-82